createdAt,value
2018-02-04T00:00:29.123Z,11.80
2018-02-04T00:02:55.412Z,11.15
2018-02-04T00:05:21.695Z,11.40
2018-02-04T00:07:47.985Z,12.13
2018-02-04T00:10:14.868Z,10.93
2018-02-04T00:12:41.453Z,11.88
2018-02-04T00:15:07.748Z,11.60
2018-02-04T00:17:33.974Z,11.65
2018-02-04T00:20:00.215Z,12.15
2018-02-04T00:22:37.672Z,11.73
2018-02-04T00:25:04.373Z,11.80
2018-02-04T00:27:30.619Z,10.80
2018-02-04T00:29:56.886Z,11.63
2018-02-04T00:32:23.289Z,11.20
2018-02-04T00:34:49.544Z,11.77
2018-02-04T00:37:16.209Z,11.40
2018-02-04T00:39:42.561Z,12.10
2018-02-04T00:42:08.855Z,12.50
2018-02-04T00:44:35.521Z,12.32
2018-02-04T00:47:01.745Z,11.40
2018-02-04T00:49:27.988Z,11.93
2018-02-04T00:51:54.223Z,13.62
2018-02-04T00:54:20.448Z,12.40
2018-02-04T00:56:46.690Z,13.07
2018-02-04T00:59:12.939Z,13.02
2018-02-04T01:01:39.618Z,11.57
2018-02-04T01:04:05.848Z,10.65
2018-02-04T01:06:32.130Z,11.15
2018-02-04T01:08:58.346Z,10.55
2018-02-04T01:11:24.576Z,12.02
2018-02-04T01:13:50.967Z,11.68
2018-02-04T01:16:17.243Z,11.32
2018-02-04T01:18:43.455Z,11.02
2018-02-04T01:21:10.800Z,10.63
2018-02-04T01:23:36.997Z,10.82
2018-02-04T01:26:03.257Z,11.48
2018-02-04T01:28:29.527Z,11.38
2018-02-04T01:30:56.153Z,10.40
2018-02-04T01:33:22.732Z,10.07
2018-02-04T01:35:48.948Z,11.35
2018-02-04T01:38:15.141Z,11.95
2018-02-04T01:40:41.828Z,11.48
2018-02-04T01:43:08.064Z,10.82
2018-02-04T01:45:34.350Z,11.50
2018-02-04T01:48:07.697Z,11.60
2018-02-04T01:50:33.982Z,12.23
2018-02-04T01:53:00.210Z,12.15
2018-02-04T01:55:27.322Z,12.00
2018-02-04T01:57:53.635Z,10.95
2018-02-04T02:00:19.878Z,10.05
2018-02-04T02:02:46.160Z,12.00
2018-02-04T02:05:12.378Z,10.30
2018-02-04T02:07:38.637Z,12.07
2018-02-04T02:10:04.923Z,9.60
2018-02-04T02:12:31.179Z,9.68
2018-02-04T02:14:57.412Z,11.55
2018-02-04T02:17:24.088Z,10.45
2018-02-04T02:19:50.362Z,11.25
2018-02-04T02:22:16.623Z,10.43
2018-02-04T02:24:42.842Z,10.63
2018-02-04T02:27:09.060Z,10.50
2018-02-04T02:29:35.265Z,10.63
2018-02-04T02:32:01.882Z,11.98
2018-02-04T02:34:28.473Z,10.68
2018-02-04T02:36:54.698Z,11.18
2018-02-04T02:39:21.014Z,10.52
2018-02-04T02:41:47.253Z,13.32
2018-02-04T02:44:13.437Z,10.80
2018-02-04T02:46:40.032Z,9.13
2018-02-04T02:49:06.346Z,9.70
2018-02-04T02:51:32.606Z,10.90
2018-02-04T02:53:58.896Z,10.52
2018-02-04T02:56:25.199Z,9.65
2018-02-04T02:58:51.773Z,8.82
2018-02-04T03:01:17.989Z,10.88
2018-02-04T03:03:44.233Z,9.77
2018-02-04T03:06:10.450Z,11.50
2018-02-04T03:08:36.669Z,10.45
2018-02-04T03:11:02.892Z,10.70
2018-02-04T03:13:29.102Z,10.85
2018-02-04T03:15:55.288Z,11.30
2018-02-04T03:18:21.517Z,11.50
2018-02-04T03:20:47.720Z,11.65
2018-02-04T03:23:13.971Z,11.05
2018-02-04T03:25:40.316Z,12.30
2018-02-04T03:28:06.528Z,12.40
2018-02-04T03:30:32.760Z,12.25
2018-02-04T03:32:58.994Z,13.25
2018-02-04T03:35:25.204Z,13.65
2018-02-04T03:37:51.440Z,12.90
2018-02-04T03:40:17.631Z,13.20
2018-02-04T03:42:43.881Z,12.93
2018-02-04T03:45:10.158Z,13.05
2018-02-04T03:47:36.764Z,12.63
2018-02-04T03:50:03.055Z,11.85
2018-02-04T03:52:29.301Z,12.57
2018-02-04T03:54:55.512Z,13.10
2018-02-04T03:57:21.753Z,12.37
2018-02-04T03:59:48.040Z,11.82
2018-02-04T04:02:14.652Z,13.00
2018-02-04T04:04:40.855Z,10.85
2018-02-04T04:07:07.352Z,11.80
2018-02-04T04:09:33.565Z,10.25
2018-02-04T04:11:59.898Z,11.55
2018-02-04T04:14:26.491Z,10.55
2018-02-04T04:16:52.780Z,10.60
2018-02-04T04:19:19.040Z,9.73
2018-02-04T04:21:45.283Z,11.55
2018-02-04T04:24:11.516Z,11.65
2018-02-04T04:26:37.764Z,11.23
2018-02-04T04:29:04.011Z,9.93
2018-02-04T04:31:30.600Z,11.35
2018-02-04T04:33:57.778Z,10.50
2018-02-04T04:36:24.001Z,11.63
2018-02-04T04:38:50.227Z,10.10
2018-02-04T04:41:16.401Z,11.50
2018-02-04T04:43:43.169Z,10.50
2018-02-04T04:46:09.423Z,10.30
2018-02-04T04:48:35.634Z,10.57
2018-02-04T04:51:01.868Z,10.35
2018-02-04T04:53:28.082Z,11.65
2018-02-04T04:55:54.333Z,12.20
2018-02-04T04:58:20.901Z,12.00
2018-02-04T05:00:47.537Z,13.15
2018-02-04T05:03:15.031Z,12.82
2018-02-04T05:05:41.326Z,11.35
2018-02-04T05:08:07.888Z,12.50
2018-02-04T05:10:34.098Z,13.60
2018-02-04T05:13:00.374Z,12.60
2018-02-04T05:15:26.618Z,11.80
2018-02-04T05:17:52.894Z,12.15
2018-02-04T05:20:19.190Z,12.98
2018-02-04T05:22:46.161Z,14.75
2018-02-04T05:25:12.429Z,13.40
2018-02-04T05:27:38.758Z,12.95
2018-02-04T05:30:05.011Z,13.30
2018-02-04T05:32:31.313Z,12.60
2018-02-04T05:34:57.603Z,13.73
2018-02-04T05:37:24.442Z,13.70
2018-02-04T05:39:51.022Z,13.73
2018-02-04T05:42:17.268Z,13.48
2018-02-04T05:44:43.570Z,13.52
2018-02-04T05:47:09.812Z,13.18
2018-02-04T05:49:36.080Z,13.82
2018-02-04T05:52:02.793Z,13.60
2018-02-04T05:54:29.148Z,14.75
2018-02-04T05:56:55.484Z,13.90
2018-02-04T05:59:21.745Z,14.70
2018-02-04T06:01:47.974Z,14.10
2018-02-04T06:04:14.976Z,12.82
2018-02-04T06:06:41.579Z,15.18
2018-02-04T06:09:07.871Z,13.90
2018-02-04T06:11:34.112Z,14.25
2018-02-04T06:14:00.461Z,14.20
2018-02-04T06:16:26.689Z,12.95
2018-02-04T06:18:53.006Z,13.35
2018-02-04T06:21:19.228Z,14.18
2018-02-04T06:23:45.478Z,12.63
2018-02-04T06:26:11.786Z,12.98
2018-02-04T06:28:40.455Z,14.75
2018-02-04T06:31:06.780Z,13.75
2018-02-04T06:33:34.329Z,13.13
2018-02-04T06:36:00.592Z,13.05
2018-02-04T06:38:27.097Z,13.23
2018-02-04T06:40:53.754Z,12.35
2018-02-04T06:43:19.984Z,14.45
2018-02-04T06:45:46.304Z,15.73
2018-02-04T06:48:12.527Z,16.60
2018-02-04T06:50:38.806Z,15.02
2018-02-04T06:53:05.007Z,15.80
2018-02-04T06:55:31.261Z,14.75
2018-02-04T06:57:58.092Z,15.52
2018-02-04T07:00:24.347Z,16.65
2018-02-04T07:02:50.969Z,13.40
2018-02-04T07:05:17.210Z,15.18
2018-02-04T07:07:43.447Z,15.65
2018-02-04T07:10:09.737Z,13.23
2018-02-04T07:12:36.008Z,14.13
2018-02-04T07:15:02.281Z,13.88
2018-02-04T07:17:28.528Z,14.32
2018-02-04T07:19:54.744Z,14.85
2018-02-04T07:22:21.015Z,14.57
2018-02-04T07:24:47.248Z,15.60
2018-02-04T07:27:13.464Z,17.12
2018-02-04T07:29:39.765Z,15.40
2018-02-04T07:32:06.011Z,15.45
2018-02-04T07:34:32.272Z,14.87
2018-02-04T07:36:58.561Z,13.82
2018-02-04T07:39:24.815Z,14.00
2018-02-04T07:41:51.109Z,14.90
2018-02-04T07:44:17.326Z,11.85
2018-02-04T07:46:43.597Z,10.60
2018-02-04T07:49:09.825Z,12.07
2018-02-04T07:51:36.061Z,12.68
2018-02-04T07:54:02.321Z,12.15
2018-02-04T07:56:29.382Z,12.10
2018-02-04T07:58:55.625Z,13.15
2018-02-04T08:01:21.892Z,12.23
2018-02-04T08:03:48.179Z,12.43
2018-02-04T08:06:14.455Z,11.80
2018-02-04T08:08:40.717Z,12.48
2018-02-04T08:11:07.516Z,13.68
2018-02-04T08:13:33.748Z,14.55
2018-02-04T08:16:00.011Z,12.63
2018-02-04T08:18:26.226Z,12.75
2018-02-04T08:20:52.516Z,13.60
2018-02-04T08:23:18.748Z,12.27
2018-02-04T08:25:45.038Z,12.10
2018-02-04T08:28:11.379Z,12.43
2018-02-04T08:30:37.625Z,12.80
2018-02-04T08:33:03.897Z,13.80
2018-02-04T08:35:30.504Z,12.25
2018-02-04T08:37:56.756Z,13.48
2018-02-04T08:40:23.338Z,13.75
2018-02-04T08:42:49.581Z,13.80
2018-02-04T08:45:15.825Z,13.15
2018-02-04T08:47:42.061Z,12.95
2018-02-04T08:50:08.321Z,12.55
2018-02-04T08:52:34.935Z,13.20
2018-02-04T08:55:01.261Z,13.43
2018-02-04T08:57:27.493Z,12.23
2018-02-04T08:59:53.799Z,13.48
2018-02-04T09:02:20.102Z,11.73
2018-02-04T09:04:46.489Z,13.62
2018-02-04T09:07:12.688Z,12.27
2018-02-04T09:09:38.984Z,12.02
2018-02-04T09:12:05.233Z,13.32
2018-02-04T09:14:31.498Z,12.13
2018-02-04T09:16:57.788Z,12.77
2018-02-04T09:19:24.044Z,10.90
2018-02-04T09:21:50.286Z,12.95
2018-02-04T09:24:16.511Z,11.63
2018-02-04T09:26:42.860Z,12.45
2018-02-04T09:29:09.171Z,13.48
2018-02-04T09:31:35.389Z,11.38
2018-02-04T09:34:01.632Z,10.82
2018-02-04T09:36:27.829Z,12.15
2018-02-04T09:38:54.078Z,11.95
2018-02-04T09:41:20.317Z,12.32
2018-02-04T09:43:46.610Z,11.65
2018-02-04T09:46:12.833Z,11.77
2018-02-04T09:48:39.209Z,10.98
2018-02-04T09:51:05.508Z,11.90
2018-02-04T09:53:31.723Z,11.75
2018-02-04T09:55:58.900Z,10.55
2018-02-04T09:58:25.192Z,9.45
2018-02-04T10:00:51.434Z,10.68
2018-02-04T10:03:17.748Z,10.63
2018-02-04T10:05:43.984Z,11.02
2018-02-04T10:08:10.346Z,10.30
2018-02-04T10:10:36.594Z,10.73
2018-02-04T10:13:02.848Z,11.02
2018-02-04T10:15:29.153Z,10.50
2018-02-04T10:17:55.366Z,10.45
2018-02-04T10:20:21.607Z,11.10
2018-02-04T10:22:47.897Z,10.90
2018-02-04T10:25:14.136Z,11.25
2018-02-04T10:27:40.493Z,11.00
2018-02-04T10:30:06.749Z,9.85
2018-02-04T10:32:32.997Z,10.75
2018-02-04T10:34:59.264Z,10.18
2018-02-04T10:37:25.561Z,9.02
2018-02-04T10:39:51.822Z,11.38
2018-02-04T10:42:18.037Z,10.60
2018-02-04T10:44:44.288Z,14.93
2018-02-04T10:47:10.581Z,9.90
2018-02-04T10:49:36.828Z,10.50
2018-02-04T10:52:03.367Z,10.38
2018-02-04T10:54:29.607Z,11.68
2018-02-04T10:56:56.225Z,10.48
2018-02-04T10:59:22.507Z,10.60
2018-02-04T11:01:49.156Z,10.07
2018-02-04T11:04:15.398Z,13.52
2018-02-04T11:06:42.665Z,12.23
2018-02-04T11:09:08.978Z,9.82
2018-02-04T11:11:35.255Z,9.45
2018-02-04T11:14:01.869Z,9.32
2018-02-04T11:16:28.147Z,10.55
2018-02-04T11:18:54.379Z,10.70
2018-02-04T11:21:20.616Z,10.13
2018-02-04T11:23:46.883Z,13.73
2018-02-04T11:26:13.275Z,10.20
2018-02-04T11:28:39.580Z,9.90
2018-02-04T11:31:18.354Z,8.83
2018-02-04T11:33:44.580Z,8.27
2018-02-04T11:36:11.900Z,6.20
2018-02-04T11:38:38.204Z,7.63
2018-02-04T11:41:04.539Z,8.60
2018-02-04T11:43:30.739Z,8.70
2018-02-04T11:45:57.833Z,8.00
2018-02-04T11:48:24.138Z,7.83
2018-02-04T11:50:50.374Z,8.83
2018-02-04T11:53:17.107Z,7.07
2018-02-04T11:55:43.403Z,7.47
2018-02-04T11:58:09.683Z,7.63
2018-02-04T12:00:36.016Z,7.23
2018-02-04T12:03:02.698Z,7.37
2018-02-04T12:05:28.988Z,7.80
2018-02-04T12:07:55.237Z,7.30
2018-02-04T12:10:21.463Z,7.27
2018-02-04T12:12:47.685Z,7.70
2018-02-04T12:15:13.977Z,6.07
2018-02-04T12:17:40.270Z,7.93
2018-02-04T12:20:06.539Z,7.07
2018-02-04T12:22:33.575Z,6.90
2018-02-04T12:24:59.855Z,7.40
2018-02-04T12:27:26.090Z,6.47
2018-02-04T12:29:52.350Z,6.12
2018-02-04T12:32:18.552Z,8.48
2018-02-04T12:34:44.746Z,7.78
2018-02-04T12:37:11.359Z,6.75
2018-02-04T12:39:37.602Z,6.35
2018-02-04T12:42:04.196Z,5.72
2018-02-04T12:44:31.401Z,7.25
2018-02-04T12:46:57.686Z,6.70
2018-02-04T12:49:23.947Z,7.57
2018-02-04T12:51:50.623Z,7.03
2018-02-04T12:54:16.924Z,6.25
2018-02-04T12:56:43.173Z,6.05
2018-02-04T12:59:09.616Z,5.57
2018-02-04T13:01:35.854Z,6.22
2018-02-04T13:04:02.473Z,7.78
2018-02-04T13:06:28.722Z,6.55
2018-02-04T13:08:54.978Z,6.30
2018-02-04T13:11:21.260Z,6.07
2018-02-04T13:13:47.567Z,5.82
2018-02-04T13:16:14.438Z,6.22
2018-02-04T13:18:40.701Z,6.22
2018-02-04T13:21:06.976Z,6.12
2018-02-04T13:23:33.237Z,5.40
2018-02-04T13:25:59.479Z,4.87
2018-02-04T13:28:25.785Z,4.30
2018-02-04T13:30:52.372Z,3.80
2018-02-04T13:33:18.609Z,3.65
2018-02-04T13:35:45.230Z,4.18
2018-02-04T13:38:11.611Z,3.90
2018-02-04T13:40:37.876Z,3.58
2018-02-04T13:43:04.169Z,3.70
2018-02-04T13:45:30.456Z,4.28
2018-02-04T13:47:56.754Z,3.47
2018-02-04T13:50:23.335Z,3.83
2018-02-04T13:52:49.635Z,4.28
2018-02-04T13:55:15.890Z,4.18
2018-02-04T13:57:42.535Z,4.22
2018-02-04T14:00:09.202Z,4.97
2018-02-04T14:02:35.497Z,5.32
2018-02-04T14:05:02.128Z,4.90
2018-02-04T14:07:35.307Z,5.25
2018-02-04T14:10:01.574Z,5.65
2018-02-04T14:12:27.820Z,4.70
2018-02-04T14:14:54.810Z,4.68
2018-02-04T14:17:21.265Z,5.00
2018-02-04T14:19:47.508Z,5.30
2018-02-04T14:22:13.766Z,5.43
2018-02-04T14:24:40.086Z,4.40
2018-02-04T14:27:06.377Z,4.70
2018-02-04T14:29:33.070Z,5.18
2018-02-04T14:31:59.372Z,5.28
2018-02-04T14:34:25.705Z,5.90
2018-02-04T14:36:52.035Z,5.50
2018-02-04T14:39:18.336Z,5.37
2018-02-04T14:41:44.707Z,4.70
2018-02-04T14:44:11.009Z,5.72
2018-02-04T14:46:37.357Z,5.60
2018-02-04T14:49:03.626Z,5.25
2018-02-04T14:51:29.894Z,4.80
2018-02-04T14:53:57.554Z,5.97
2018-02-04T14:56:25.042Z,5.18
2018-02-04T14:58:51.252Z,5.05
2018-02-04T15:01:17.583Z,6.05
2018-02-04T15:03:43.945Z,5.70
2018-02-04T15:06:11.331Z,6.68
2018-02-04T15:08:37.998Z,6.50
2018-02-04T15:11:04.271Z,5.80
2018-02-04T15:13:30.553Z,5.10
2018-02-04T15:15:57.350Z,6.00
2018-02-04T15:18:23.664Z,6.25
2018-02-04T15:20:49.967Z,5.28
2018-02-04T15:23:16.250Z,5.60
2018-02-04T15:25:43.309Z,5.15
2018-02-04T15:28:09.600Z,5.80
2018-02-04T15:30:36.837Z,4.90
2018-02-04T15:33:03.153Z,5.35
2018-02-04T15:35:29.543Z,5.60
2018-02-04T15:37:55.921Z,5.50
2018-02-04T15:40:22.552Z,6.22
2018-02-04T15:42:48.844Z,5.70
2018-02-04T15:45:15.123Z,5.97
2018-02-04T15:47:41.553Z,5.40
2018-02-04T15:50:07.900Z,5.60
2018-02-04T15:52:34.210Z,5.62
2018-02-04T15:55:00.494Z,4.93
2018-02-04T15:57:26.838Z,5.18
2018-02-04T15:59:54.122Z,5.80
2018-02-04T16:02:20.423Z,5.00
2018-02-04T16:04:46.696Z,5.50
2018-02-04T16:07:12.997Z,5.72
2018-02-04T16:09:39.328Z,5.35
2018-02-04T16:12:05.661Z,5.55
2018-02-04T16:14:31.962Z,5.53
2018-02-04T16:16:58.335Z,5.37
2018-02-04T16:19:24.612Z,5.37
2018-02-04T16:21:50.946Z,5.22
2018-02-04T16:24:17.260Z,5.50
2018-02-04T16:26:43.686Z,5.10
2018-02-04T16:29:10.018Z,5.32
2018-02-04T16:31:36.303Z,4.95
2018-02-04T16:34:02.703Z,5.20
2018-02-04T16:36:28.979Z,5.15
2018-02-04T16:38:56.149Z,4.62
2018-02-04T16:41:23.280Z,4.55
2018-02-04T16:43:49.935Z,5.70
2018-02-04T16:46:16.311Z,4.50
2018-02-04T16:48:43.180Z,5.47
2018-02-04T16:51:09.635Z,5.40
2018-02-04T16:53:36.070Z,5.15
2018-02-04T16:56:02.388Z,5.15
2018-02-04T16:58:28.690Z,5.40
2018-02-04T17:00:55.404Z,4.93
2018-02-04T17:03:22.080Z,4.95
2018-02-04T17:05:48.784Z,5.07
2018-02-04T17:08:15.138Z,4.62
2018-02-04T17:10:41.830Z,5.40
2018-02-04T17:13:09.231Z,5.53
2018-02-04T17:15:35.903Z,6.00
2018-02-04T17:18:02.344Z,6.50
2018-02-04T17:20:28.711Z,6.35
2018-02-04T17:22:55.006Z,6.35
2018-02-04T17:25:21.340Z,6.50
2018-02-04T17:27:47.613Z,6.68
2018-02-04T17:30:14.001Z,7.40
2018-02-04T17:32:41.423Z,7.12
2018-02-04T17:35:08.606Z,7.90
2018-02-04T17:37:34.889Z,7.03
2018-02-04T17:40:01.636Z,8.07
2018-02-04T17:42:27.988Z,7.70
2018-02-04T17:44:54.381Z,8.35
2018-02-04T17:47:20.772Z,7.60
2018-02-04T17:49:47.641Z,15.25
2018-02-04T17:52:14.094Z,10.77
2018-02-04T17:54:40.818Z,9.32
2018-02-04T17:57:07.571Z,8.95
2018-02-04T17:59:34.285Z,9.77
2018-02-04T18:02:00.612Z,10.27
2018-02-04T18:04:26.967Z,10.20
2018-02-04T18:06:54.917Z,9.55
2018-02-04T18:09:21.198Z,9.68
2018-02-04T18:11:47.596Z,9.50
2018-02-04T18:14:13.930Z,10.60
2018-02-04T18:16:41.213Z,10.52
2018-02-04T18:19:07.572Z,10.05
2018-02-04T18:21:33.963Z,11.00
2018-02-04T18:24:00.625Z,12.25
2018-02-04T18:26:26.915Z,11.35
2018-02-04T18:28:53.638Z,12.35
2018-02-04T18:31:19.959Z,11.80
2018-02-04T18:33:46.264Z,10.98
2018-02-04T18:36:12.591Z,12.35
2018-02-04T18:38:38.864Z,12.80
2018-02-04T18:41:05.504Z,12.70
2018-02-04T18:43:31.821Z,12.20
2018-02-04T18:45:58.182Z,12.20
2018-02-04T18:48:24.483Z,12.07
2018-02-04T18:50:50.792Z,11.00
2018-02-04T18:53:17.074Z,11.68
2018-02-04T18:55:43.788Z,9.98
2018-02-04T18:58:10.228Z,11.05
2018-02-04T19:00:37.536Z,11.40
2018-02-04T19:03:04.044Z,13.65
2018-02-04T19:05:30.694Z,14.90
2018-02-04T19:07:57.914Z,16.62
2018-02-04T19:10:24.592Z,17.05
2018-02-04T19:12:50.916Z,16.15
2018-02-04T19:15:17.273Z,16.85
2018-02-04T19:17:43.629Z,16.08
2018-02-04T19:20:10.019Z,15.70
2018-02-04T19:22:36.359Z,14.05
2018-02-04T19:25:02.707Z,14.50
2018-02-04T19:27:29.012Z,14.32
2018-02-04T19:29:55.302Z,13.50
2018-02-04T19:32:22.158Z,15.60
2018-02-04T19:34:48.776Z,15.77
2018-02-04T19:37:15.183Z,14.85
2018-02-04T19:39:41.605Z,18.65
2018-02-04T19:42:07.918Z,18.10
2018-02-04T19:44:34.224Z,17.45
2018-02-04T19:47:00.960Z,16.00
2018-02-04T19:49:27.546Z,14.85
2018-02-04T19:51:53.797Z,15.10
2018-02-04T19:54:20.116Z,14.25
2018-02-04T19:56:46.494Z,14.63
2018-02-04T19:59:12.900Z,13.65
2018-02-04T20:01:39.369Z,15.32
2018-02-04T20:04:05.709Z,12.27
2018-02-04T20:06:32.103Z,13.93
2018-02-04T20:08:58.796Z,13.65
2018-02-04T20:11:25.080Z,12.75
2018-02-04T20:13:51.744Z,14.20
2018-02-04T20:16:18.089Z,13.18
2018-02-04T20:18:44.499Z,14.43
2018-02-04T20:21:10.862Z,18.90
2018-02-04T20:23:37.147Z,18.00
2018-02-04T20:26:04.048Z,20.15
2018-02-04T20:28:30.392Z,17.55
2018-02-04T20:30:56.680Z,14.90
2018-02-04T20:33:23.148Z,20.10
2018-02-04T20:35:49.558Z,17.02
2018-02-04T20:38:15.905Z,17.30
2018-02-04T20:40:42.241Z,14.27
2018-02-04T20:43:08.837Z,14.10
2018-02-04T20:45:35.201Z,13.55
2018-02-04T20:48:01.479Z,13.18
2018-02-04T20:50:27.808Z,15.25
2018-02-04T20:52:54.166Z,13.13
2018-02-04T20:55:20.522Z,13.93
2018-02-04T20:57:46.839Z,15.20
2018-02-04T21:00:13.173Z,15.65
2018-02-04T21:02:39.613Z,20.73
2018-02-04T21:05:05.958Z,17.48
2018-02-04T21:07:32.251Z,17.98
2018-02-04T21:09:58.623Z,18.40
2018-02-04T21:12:25.728Z,18.25
2018-02-04T21:14:52.038Z,21.60
2018-02-04T21:17:18.370Z,19.48
2018-02-04T21:19:44.659Z,19.60
2018-02-04T21:22:12.064Z,21.75
2018-02-04T21:24:38.338Z,25.92
2018-02-04T21:27:04.673Z,32.47
2018-02-04T21:29:31.064Z,39.28
2018-02-04T21:31:57.436Z,54.70
2018-02-04T21:34:24.101Z,58.65
2018-02-04T21:36:50.760Z,55.12
2018-02-04T21:39:17.052Z,30.20
2018-02-04T21:41:43.739Z,20.35
2018-02-04T21:44:10.027Z,17.00
2018-02-04T21:46:36.406Z,15.40
2018-02-04T21:49:02.826Z,20.00
2018-02-04T21:51:29.170Z,15.82
2018-02-04T21:53:55.501Z,18.77
2018-02-04T21:56:21.901Z,17.37
2018-02-04T21:58:48.222Z,16.65
2018-02-04T22:01:14.588Z,17.40
2018-02-04T22:03:40.978Z,17.77
2018-02-04T22:06:07.696Z,17.75
2018-02-04T22:08:33.966Z,16.90
2018-02-04T22:11:00.280Z,18.75
2018-02-04T22:13:26.914Z,17.02
2018-02-04T22:15:53.497Z,17.98
2018-02-04T22:18:19.833Z,16.58
2018-02-04T22:20:46.195Z,18.40
2018-02-04T22:23:12.581Z,18.02
2018-02-04T22:25:38.811Z,17.48
2018-02-04T22:28:05.088Z,18.75
2018-02-04T22:30:31.393Z,16.95
2018-02-04T22:32:57.674Z,18.33
2018-02-04T22:35:23.928Z,16.92
2018-02-04T22:37:50.208Z,16.48
2018-02-04T22:40:16.907Z,17.75
2018-02-04T22:42:43.145Z,18.05
2018-02-04T22:45:09.397Z,17.40
2018-02-04T22:47:35.656Z,16.83
2018-02-04T22:50:01.981Z,17.10
2018-02-04T22:52:28.265Z,15.20
2018-02-04T22:54:54.513Z,16.95
2018-02-04T22:57:20.799Z,19.17
2018-02-04T22:59:47.362Z,18.45
2018-02-04T23:02:13.619Z,17.60
2018-02-04T23:04:40.348Z,19.30
2018-02-04T23:07:06.645Z,18.05
2018-02-04T23:09:32.901Z,18.83
2018-02-04T23:11:59.193Z,17.35
2018-02-04T23:14:25.487Z,18.00
2018-02-04T23:16:52.162Z,17.35
2018-02-04T23:19:18.420Z,17.00
2018-02-04T23:21:44.711Z,18.42
2018-02-04T23:24:11.018Z,18.73
2018-02-04T23:26:37.382Z,16.12
2018-02-04T23:29:03.609Z,18.75
2018-02-04T23:31:29.822Z,17.77
2018-02-04T23:33:56.037Z,16.83
2018-02-04T23:36:22.296Z,17.23
2018-02-04T23:38:48.557Z,18.50
2018-02-04T23:41:14.800Z,19.17
2018-02-04T23:43:41.396Z,19.75
2018-02-04T23:46:07.690Z,19.30
2018-02-04T23:48:33.941Z,20.12
2018-02-04T23:51:00.182Z,18.27
2018-02-04T23:53:26.484Z,17.67
2018-02-04T23:55:52.796Z,19.92
2018-02-04T23:58:19.404Z,17.70
